Meteo Giornale » Osservazioni meteo Stati Uniti (USA) » Akron-Canton
ore: 17:51 - Osservazioni Meteo Akron-Canton
Lat. 40° 55' N Lon. 81° 26' W Alt. 374 metri s.l.m.
29 °C
Molto Nuvoloso
Temp. 24 Ore
21 °C
29 °C
Nord
5.5 Km/h
Dew point 21 °C
Umidità 62 %
Visibilità 10 Km
Il sole sorge alle ore 06:51
Il sole tramonta alle ore 20:00
| Data e Ora | Cielo e Fenomeni | T °C | DP °C | Um. % | Pres. hPa | Vis. km | Vento km/h | |
|---|---|---|---|---|---|---|---|---|
| Oggi h: 17:51 | Molto Nuvoloso | 29 | 21 | 62 | 1018 | 10 | N 5.5 | |
| Oggi h: 16:51 | Pioggia | 28 | 22 | 69 | 1018 | 10 | N 0 | |
| Oggi h: 15:51 | Molto Nuvoloso | 29 | 20 | 58 | 1018 | 10 | O 11.1 | |
| Oggi h: 14:51 | Molto Nuvoloso | 29 | 21 | 62 | 1019 | 10 | O 16.7 | |
| Oggi h: 13:51 | Coperto | 28 | 21 | 65 | 1019 | 10 | O 11.1 | |
| Oggi h: 12:51 | Molto Nuvoloso | 29 | 19 | 54 | 1019 | 10 | O 13 | |
| Oggi h: 11:51 | Molto Nuvoloso | 27 | 21 | 69 | 1019 | 10 | SO 11.1 | |
| Oggi h: 10:51 | Molto Nuvoloso | 24 | 21 | 83 | 1020 | 10 | O/SO 11.1 | |
| Oggi h: 09:51 | Coperto | 23 | 21 | 88 | 1019 | 10 | S/SO 7.4 | |
| Oggi h: 08:51 | Coperto | 23 | 21 | 88 | 1019 | 10 | S/SO 9.3 | |
| Oggi h: 07:51 | Coperto | 22 | 20 | 88 | 1020 | 10 | S/SO 9.3 | |
| Oggi h: 06:51 | Coperto | 21 | 19 | 88 | 1019 | 10 | S 11.1 | |
| Oggi h: 05:51 | Coperto | 21 | 19 | 88 | 1019 | 10 | S 11.1 | |
| Oggi h: 04:51 | Coperto | 21 | 19 | 88 | 1019 | 10 | S 11.1 | |
| Oggi h: 03:51 | Molto Nuvoloso | 21 | 19 | 88 | 1019 | 10 | S 11.1 | |
| Oggi h: 02:51 | Coperto | 21 | 19 | 88 | 1019 | 10 | S/SE 9.3 | |
| Oggi h: 01:51 | Coperto | 22 | 19 | 83 | 1019 | 10 | SE 7.4 | |
| Oggi h: 00:51 | Coperto | 22 | 20 | 88 | 1019 | 10 | S/SE 14.8 | |
| Ieri h: 23:51 | Molto Nuvoloso | 22 | 21 | 94 | 1020 | 10 | S/SE 7.4 | |
| Ieri h: 22:51 | Coperto | 22 | 21 | 94 | 1020 | 10 | E/SE 11.1 | |
| Ieri h: 21:51 | Coperto | 22 | 20 | 88 | 1021 | 10 | E 7.4 | |
| Ieri h: 20:51 | Coperto | 22 | 20 | 88 | 1020 | 10 | N 5.5 | |
| Ieri h: 19:51 | Coperto | 23 | 19 | 78 | 1019 | 10 | N 0 | |
| Ieri h: 18:51 | Molto Nuvoloso | 25 | 18 | 65 | 1018 | 10 | SE 11.1 | |



